Time;durP1;ratioP1;P1;durP2;ratioP2;P2;SDS_P1;SDS_P2;PMS_P1;PMS_P2;Temp;Humidity;BMP_temperature;BMP_pressure;BME280_temperature;BME280_humidity;BME280_pressure;Samples;Min_cycle;Max_cycle;Signal;HPM_P1;HPM_P2
2021/10/31 00:01:04;;;;;;;23.83;18.17;;;;;;;4.23;78.29;100894.70;1691249;82;22376;-56
2021/10/31 00:03:32;;;;;;;24.43;18.07;;;;;;;4.18;78.33;100888.05;1695573;83;21136;-56
2021/10/31 00:05:58;;;;;;;21.43;15.73;;;;;;;4.16;78.35;100894.74;1694371;82;21085;-55
2021/10/31 00:08:25;;;;;;;22.40;16.43;;;;;;;4.15;78.39;100887.64;1695024;82;20994;-56
2021/10/31 00:10:53;;;;;;;22.77;16.73;;;;;;;4.15;78.35;100890.30;1692705;83;20986;-56
2021/10/31 00:13:19;;;;;;;20.10;15.63;;;;;;;4.14;78.37;100888.52;1693231;82;21550;-56
2021/10/31 00:15:45;;;;;;;23.43;17.07;;;;;;;4.15;78.42;100884.08;1690020;83;21107;-56
2021/10/31 00:18:12;;;;;;;24.47;16.77;;;;;;;4.14;78.41;100878.31;1680105;82;21145;-56
2021/10/31 00:20:38;;;;;;;24.77;18.30;;;;;;;4.13;78.45;100876.53;1683613;83;21077;-54
2021/10/31 00:23:05;;;;;;;27.97;19.27;;;;;;;4.12;78.47;100872.09;1683756;84;21576;-56
2021/10/31 00:25:31;;;;;;;26.50;20.43;;;;;;;4.11;78.47;100876.98;1678678;82;21730;-56
2021/10/31 00:27:58;;;;;;;28.03;20.17;;;;;;;4.09;78.46;100875.64;1687233;82;22598;-55
2021/10/31 00:30:24;;;;;;;28.83;22.13;;;;;;;4.08;78.44;100874.34;1720989;80;21034;-55
2021/10/31 00:32:51;;;;;;;32.73;21.67;;;;;;;4.04;78.47;100869.91;1719503;80;21508;-55
2021/10/31 00:35:17;;;;;;;26.77;18.90;;;;;;;4.04;78.52;100868.58;1724408;80;21458;-55
2021/10/31 00:37:44;;;;;;;26.67;19.00;;;;;;;4.04;78.55;100864.58;1722405;80;21042;-55
2021/10/31 00:40:12;;;;;;;22.77;17.60;;;;;;;4.03;78.59;100865.02;1716210;80;21049;-55
2021/10/31 00:42:39;;;;;;;26.47;17.23;;;;;;;4.03;78.58;100859.70;1724253;80;20947;-56
2021/10/31 00:45:06;;;;;;;22.40;19.00;;;;;;;4.04;78.59;100864.58;1722575;80;20978;-57
2021/10/31 00:47:33;;;;;;;24.13;18.90;;;;;;;4.03;78.62;100857.48;1719778;80;21761;-55
2021/10/31 00:50:00;;;;;;;22.40;18.17;;;;;;;4.01;78.59;100854.81;1723609;80;20898;-56
2021/10/31 00:52:27;;;;;;;24.07;18.60;;;;;;;4.00;78.54;100850.37;1720641;80;20930;-56
2021/10/31 00:54:54;;;;;;;25.80;19.20;;;;;;;3.98;78.45;100856.17;1723704;80;20946;-57
2021/10/31 00:57:21;;;;;;;29.57;21.40;;;;;;;3.96;78.41;100850.41;1721864;80;20974;-56
2021/10/31 00:59:47;;;;;;;25.87;19.73;;;;;;;3.93;78.34;100855.29;1725292;80;21100;-56
2021/10/31 01:02:16;;;;;;;23.70;18.83;;;;;;;3.90;78.22;100851.77;1719583;80;20914;-56
2021/10/31 01:04:49;;;;;;;24.60;17.97;;;;;;;3.87;78.11;100850.00;1720788;80;20907;-57
2021/10/31 01:07:24;;;;;;;20.87;16.37;;;;;;;3.86;77.98;100845.55;1715136;80;21511;-56
2021/10/31 01:10:05;;;;;;;20.43;15.10;;;;;;;3.84;77.85;100843.78;1724643;80;21582;-56
2021/10/31 01:12:52;;;;;;;19.67;16.30;;;;;;;3.82;77.76;100846.48;1719490;80;21153;-55
2021/10/31 01:15:45;;;;;;;22.30;17.10;;;;;;;3.80;77.61;100842.92;1717531;80;21556;-56
2021/10/31 01:18:50;;;;;;;22.20;16.90;;;;;;;3.78;77.47;100844.70;1734884;80;21527;-55
2021/10/31 01:21:34;;;;;;;23.10;18.10;;;;;;;3.74;77.47;100835.82;1737693;80;21346;-56
2021/10/31 01:24:12;;;;;;;23.10;18.30;;;;;;;3.71;77.52;100837.19;1737373;80;21113;-55
2021/10/31 01:26:49;;;;;;;22.80;18.47;;;;;;;3.68;77.56;100841.17;1738073;80;21110;-55
2021/10/31 01:29:27;;;;;;;24.80;18.20;;;;;;;3.65;77.59;100841.65;1736022;80;21066;-55
2021/10/31 01:32:19;;;;;;;27.93;19.53;;;;;;;3.61;77.52;100832.77;1741035;80;21448;-55
2021/10/31 01:35:30;;;;;;;23.73;19.53;;;;;;;3.58;77.46;100838.53;1691795;81;21083;-55
2021/10/31 01:38:35;;;;;;;28.60;19.73;;;;;;;3.54;77.54;100832.80;1739194;80;21069;-57
2021/10/31 01:41:36;;;;;;;;;;;;;;;3.53;77.57;100831.91;1749023;80;21588;-57
2021/10/31 01:44:19;;;;;;;26.63;17.80;;;;;;;3.53;77.59;100827.91;1735102;80;20510;-55
2021/10/31 01:47:43;;;;;;;23.73;16.27;;;;;;;3.52;77.60;100828.80;1744745;79;20939;-57
2021/10/31 01:50:45;;;;;;;22.53;16.07;;;;;;;3.51;77.58;100821.70;1737168;79;21164;-57
2021/10/31 01:53:38;;;;;;;22.50;16.87;;;;;;;3.51;77.52;100818.16;1737704;80;21089;-56
2021/10/31 01:56:10;;;;;;;24.10;17.20;;;;;;;3.49;77.50;100814.16;1741161;80;22175;-56
2021/10/31 01:58:41;;;;;;;21.67;17.37;;;;;;;3.49;77.42;100818.62;1740156;79;21232;-56
2021/10/31 02:01:08;;;;;;;23.53;18.43;;;;;;;3.48;77.26;100815.52;1741844;80;21652;-56
2021/10/31 02:03:35;;;;;;;25.67;16.93;;;;;;;3.47;77.17;100819.95;1740417;79;21026;-56
2021/10/31 02:06:02;;;;;;;23.53;17.60;;;;;;;3.46;76.86;100815.95;1736259;80;21058;-56
2021/10/31 02:08:28;;;;;;;24.70;19.10;;;;;;;3.40;76.70;100815.06;1718827;80;22923;-56
2021/10/31 02:10:56;;;;;;;26.57;18.57;;;;;;;3.35;76.61;100819.53;1737964;80;21547;-57
2021/10/31 02:13:26;;;;;;;25.27;18.00;;;;;;;3.29;76.49;100814.67;1738372;80;21070;-56
2021/10/31 02:15:52;;;;;;;22.60;17.63;;;;;;;3.25;76.41;100811.55;1733457;80;21248;-56
2021/10/31 02:18:21;;;;;;;18.83;15.17;;;;;;;3.21;76.27;100810.70;1723142;80;21566;-56
2021/10/31 02:20:51;;;;;;;21.40;15.77;;;;;;;3.18;76.12;100816.45;1713372;80;22295;-56
2021/10/31 02:23:17;;;;;;;22.37;14.33;;;;;;;3.14;76.08;100810.71;1720635;80;21100;-57
2021/10/31 02:25:44;;;;;;;17.17;13.80;;;;;;;3.12;76.06;100808.48;1720054;80;21050;-55
2021/10/31 02:28:10;;;;;;;22.50;15.47;;;;;;;3.11;75.91;100814.25;1723888;80;21108;-54
2021/10/31 02:30:37;;;;;;;18.50;14.80;;;;;;;3.10;75.79;100814.25;1724701;80;21482;-54
2021/10/31 02:33:03;;;;;;;24.17;16.27;;;;;;;3.06;75.55;100810.72;1722592;80;21192;-54
2021/10/31 02:35:30;;;;;;;25.13;17.17;;;;;;;3.02;75.42;100805.84;1725406;80;21408;-54
2021/10/31 02:37:57;;;;;;;18.20;14.13;;;;;;;2.97;75.41;100810.73;1718811;80;21618;-54
2021/10/31 02:40:23;;;;;;;22.27;16.27;;;;;;;2.94;75.41;100814.70;1720089;80;21073;-53
2021/10/31 02:42:50;;;;;;;23.50;16.93;;;;;;;2.90;75.35;100810.27;1721792;80;21074;-54
2021/10/31 02:45:17;;;;;;;19.73;16.63;;;;;;;2.86;75.34;100809.39;1723832;80;22349;-55
2021/10/31 02:47:53;;;;;;;19.50;15.50;;;;;;;2.81;75.24;100817.80;1721942;80;21123;-54
2021/10/31 02:50:23;;;;;;;20.93;16.20;;;;;;;2.77;75.19;100821.36;1728590;80;21054;-54
2021/10/31 02:53:11;;;;;;;17.77;14.10;;;;;;;2.74;75.16;100817.36;1718518;80;21379;-57
2021/10/31 02:56:10;;;;;;;21.27;14.57;;;;;;;2.73;75.18;100818.68;1679142;82;21053;-54
2021/10/31 02:58:59;;;;;;;16.33;13.50;;;;;;;2.71;75.40;100817.81;1670605;84;21180;-54
2021/10/31 03:01:25;;;;;;;21.43;15.07;;;;;;;2.70;75.45;100816.93;1720963;80;21050;-55
2021/10/31 03:03:54;;;;;;;21.60;14.70;;;;;;;2.70;75.46;100811.61;1720821;80;21095;-55
2021/10/31 03:06:20;;;;;;;19.40;15.13;;;;;;;2.69;75.51;100805.84;1722303;80;20938;-56
2021/10/31 03:08:47;;;;;;;24.43;16.53;;;;;;;2.69;75.44;100804.52;1721511;80;21006;-54
2021/10/31 03:11:13;;;;;;;18.23;15.70;;;;;;;2.70;75.42;100798.77;1722434;80;21548;-54
2021/10/31 03:13:40;;;;;;;22.57;17.70;;;;;;;2.69;75.38;100793.00;1720969;80;22319;-55
2021/10/31 03:16:07;;;;;;;22.40;17.70;;;;;;;2.69;75.44;100800.97;1720237;80;21507;-56
2021/10/31 03:18:33;;;;;;;29.87;19.60;;;;;;;2.66;75.50;100800.52;1716935;80;21221;-56
2021/10/31 03:21:00;;;;;;;23.63;17.43;;;;;;;2.64;75.81;100799.63;1717997;80;21570;-55
2021/10/31 03:23:27;;;;;;;24.00;16.77;;;;;;;2.64;76.00;100800.52;1718857;80;21492;-55
2021/10/31 03:25:53;;;;;;;26.70;16.73;;;;;;;2.65;76.19;100801.41;1721967;80;21534;-57
2021/10/31 03:28:20;;;;;;;21.20;15.27;;;;;;;2.65;76.37;100800.07;1716034;80;21843;-56
2021/10/31 03:30:46;;;;;;;24.30;17.13;;;;;;;2.68;76.50;100803.19;1720803;80;21107;-55
2021/10/31 03:33:16;;;;;;;20.20;14.47;;;;;;;2.70;76.72;100800.98;1723805;80;21078;-55
2021/10/31 03:35:41;;;;;;;24.30;17.40;;;;;;;2.74;77.00;100797.86;1721832;80;21156;-55
2021/10/31 03:38:08;;;;;;;22.33;16.07;;;;;;;2.77;77.21;100806.73;1717843;80;21061;-56
2021/10/31 03:40:35;;;;;;;23.07;16.40;;;;;;;2.79;77.30;100802.31;1722567;80;20894;-55
2021/10/31 03:43:02;;;;;;;18.47;15.90;;;;;;;2.80;77.34;100803.20;1723802;80;20971;-57
2021/10/31 03:45:28;;;;;;;27.03;16.93;;;;;;;2.81;77.44;100796.97;1725522;80;20946;-57
2021/10/31 03:47:55;;;;;;;22.50;16.83;;;;;;;2.80;77.46;100795.22;1724925;80;21115;-54
2021/10/31 03:50:21;;;;;;;23.43;17.23;;;;;;;2.78;77.49;100792.56;1727828;80;20971;-54
2021/10/31 03:52:48;;;;;;;27.50;18.93;;;;;;;2.77;77.36;100789.89;1732899;80;20887;-55
2021/10/31 03:55:15;;;;;;;26.40;17.20;;;;;;;2.74;77.27;100787.22;1726027;80;20950;-55
2021/10/31 03:57:41;;;;;;;22.13;15.33;;;;;;;2.70;77.39;100790.34;1723924;80;20974;-55
2021/10/31 04:00:10;;;;;;;20.07;16.20;;;;;;;2.71;77.46;100789.91;1722367;80;21091;-56
2021/10/31 04:02:37;;;;;;;26.93;16.97;;;;;;;2.71;77.56;100793.89;1725887;80;20903;-56
2021/10/31 04:05:05;;;;;;;25.50;16.77;;;;;;;2.70;77.70;100786.36;1722582;80;20859;-55
2021/10/31 04:07:32;;;;;;;23.20;15.80;;;;;;;2.71;77.76;100792.13;1726477;80;20969;-56
2021/10/31 04:10:02;;;;;;;25.27;17.23;;;;;;;2.73;77.83;100778.80;1722380;80;20928;-55
2021/10/31 04:12:30;;;;;;;26.50;16.97;;;;;;;2.74;77.88;100781.47;1718117;80;21033;-55
2021/10/31 04:17:22;;;;;;;27.97;19.47;;;;;;;2.80;77.99;100776.17;1842976;75;26402;-55
2021/10/31 04:19:49;;;;;;;28.97;19.17;;;;;;;2.76;78.04;100775.71;1805699;77;21144;-55
2021/10/31 04:22:15;;;;;;;28.07;20.53;;;;;;;2.76;78.11;100777.48;1809931;77;21268;-55
2021/10/31 04:24:41;;;;;;;28.27;19.83;;;;;;;2.75;78.19;100767.73;1806487;77;20981;-56
2021/10/31 04:27:08;;;;;;;25.90;19.17;;;;;;;2.74;78.29;100766.84;1812932;77;21016;-55
2021/10/31 04:29:34;;;;;;;28.80;19.13;;;;;;;2.73;78.23;100766.84;1809079;77;21089;-55
2021/10/31 04:32:01;;;;;;;27.60;17.73;;;;;;;2.70;78.27;100757.11;1800472;77;20934;-57
2021/10/31 04:34:28;;;;;;;30.73;17.40;;;;;;;2.71;78.42;100763.32;1787100;79;21140;-54
2021/10/31 04:36:54;;;;;;;29.20;19.00;;;;;;;2.71;78.56;100762.87;1787106;79;21049;-55
2021/10/31 04:39:21;;;;;;;26.17;16.90;;;;;;;2.74;78.73;100762.86;1787222;78;21096;-55
2021/10/31 04:41:48;;;;;;;25.13;18.03;;;;;;;2.77;78.88;100758.87;1788360;79;21046;-55
2021/10/31 04:44:15;;;;;;;27.20;16.80;;;;;;;2.81;78.98;100763.73;1786265;79;21099;-56
2021/10/31 04:46:42;;;;;;;26.53;17.67;;;;;;;2.83;78.92;100758.86;1790204;78;21127;-54
2021/10/31 04:49:08;;;;;;;29.07;17.80;;;;;;;2.86;78.88;100758.87;1785528;79;21064;-54
2021/10/31 04:51:34;;;;;;;26.33;18.27;;;;;;;2.88;78.95;100757.10;1788165;79;21060;-55
2021/10/31 04:54:01;;;;;;;29.93;19.47;;;;;;;2.91;79.01;100757.52;1787373;79;21061;-55
2021/10/31 04:56:28;;;;;;;32.20;21.03;;;;;;;2.92;79.05;100757.52;1787754;77;21649;-55
2021/10/31 04:58:54;;;;;;;27.53;19.27;;;;;;;2.94;79.01;100758.86;1784368;79;21039;-55
2021/10/31 05:01:21;;;;;;;25.93;19.23;;;;;;;2.94;78.98;100759.75;1790837;79;21541;-57
2021/10/31 05:03:47;;;;;;;30.13;21.93;;;;;;;2.94;78.85;100761.52;1786474;78;21068;-57
2021/10/31 05:06:14;;;;;;;29.70;20.93;;;;;;;2.93;78.88;100762.40;1787841;79;21037;-55
2021/10/31 05:08:40;;;;;;;28.33;19.27;;;;;;;2.94;78.94;100764.17;1785367;79;21052;-54
2021/10/31 05:11:07;;;;;;;28.23;17.70;;;;;;;2.96;78.90;100759.75;1789391;79;23295;-55
2021/10/31 05:13:34;;;;;;;28.40;17.43;;;;;;;2.99;78.81;100767.70;1786515;79;21009;-55
2021/10/31 05:16:01;;;;;;;28.50;18.57;;;;;;;3.00;78.63;100758.84;1791494;78;21044;-55
2021/10/31 05:18:27;;;;;;;24.87;16.87;;;;;;;3.03;78.57;100769.48;1800272;78;21104;-55
2021/10/31 05:20:53;;;;;;;25.73;18.93;;;;;;;3.07;78.72;100770.34;1802033;76;21048;-55
2021/10/31 05:23:20;;;;;;;26.00;17.77;;;;;;;3.11;78.86;100774.34;1799985;78;21102;-56
2021/10/31 05:25:46;;;;;;;24.20;17.77;;;;;;;3.15;78.90;100764.12;1800148;78;21063;-57
2021/10/31 05:28:12;;;;;;;25.63;17.90;;;;;;;3.19;78.93;100772.55;1803404;78;21076;-55
2021/10/31 05:30:40;;;;;;;24.67;18.00;;;;;;;3.21;78.85;100765.91;1796119;78;21293;-54
2021/10/31 05:33:06;;;;;;;22.80;17.07;;;;;;;3.21;78.71;100765.47;1799060;78;21060;-54
2021/10/31 05:35:33;;;;;;;22.93;17.20;;;;;;;3.21;78.58;100765.91;1799675;77;21068;-56
2021/10/31 05:38:00;;;;;;;21.97;17.33;;;;;;;3.19;78.47;100770.34;1804827;78;21128;-54
2021/10/31 05:40:27;;;;;;;23.17;16.87;;;;;;;3.18;78.38;100768.56;1805786;78;21087;-56
2021/10/31 05:42:54;;;;;;;19.03;14.87;;;;;;;3.18;78.35;100765.45;1804528;78;21031;-56
2021/10/31 05:45:20;;;;;;;18.03;14.03;;;;;;;3.20;78.36;100769.01;1803307;77;21073;-54
2021/10/31 05:47:49;;;;;;;21.30;15.17;;;;;;;3.23;78.43;100768.98;1805700;78;21526;-54
2021/10/31 05:50:16;;;;;;;17.47;14.67;;;;;;;3.27;78.43;100766.77;1772793;78;21027;-53
2021/10/31 05:52:43;;;;;;;21.23;15.87;;;;;;;3.33;78.50;100773.84;1798722;78;21068;-55
2021/10/31 05:55:11;;;;;;;21.93;14.73;;;;;;;3.41;78.50;100770.70;1807608;78;21187;-52
2021/10/31 05:57:38;;;;;;;23.10;17.07;;;;;;;3.46;78.40;100774.70;1802294;78;21021;-52
2021/10/31 06:00:07;;;;;;;20.50;16.10;;;;;;;3.50;78.37;100777.33;1798210;77;21146;-52
2021/10/31 06:02:36;;;;;;;25.23;16.73;;;;;;;3.54;78.31;100776.89;1801053;78;20972;-52
2021/10/31 06:05:04;;;;;;;32.17;18.80;;;;;;;3.58;78.27;100783.52;1799914;78;21012;-53
2021/10/31 06:07:32;;;;;;;21.63;15.80;;;;;;;3.60;78.16;100784.41;1766250;80;21415;-54
2021/10/31 06:09:58;;;;;;;19.23;15.93;;;;;;;3.64;78.14;100786.18;1765735;80;21036;-54
2021/10/31 06:12:25;;;;;;;23.67;15.33;;;;;;;3.70;78.09;100783.48;1763663;80;21104;-53
2021/10/31 06:14:53;;;;;;;23.23;14.87;;;;;;;3.75;78.03;100792.33;1763432;80;21047;-52
2021/10/31 06:17:19;;;;;;;20.27;14.90;;;;;;;3.83;78.00;100787.44;1755284;80;21488;-53
2021/10/31 06:19:45;;;;;;;20.17;15.83;;;;;;;3.90;78.03;100789.17;1757810;79;22366;-54
2021/10/31 06:22:12;;;;;;;17.13;13.97;;;;;;;3.97;78.02;100789.14;1756397;80;21092;-54
2021/10/31 06:24:38;;;;;;;22.70;16.07;;;;;;;4.06;77.91;100785.53;1756471;80;23335;-54
2021/10/31 06:27:05;;;;;;;17.30;15.30;;;;;;;4.12;77.74;100793.05;1759264;80;21021;-55
2021/10/31 06:29:31;;;;;;;20.07;15.43;;;;;;;4.18;77.62;100794.33;1752670;80;21535;-54
2021/10/31 06:31:57;;;;;;;19.03;16.70;;;;;;;4.24;77.50;100789.87;1759499;80;21543;-53
2021/10/31 06:34:24;;;;;;;23.63;17.47;;;;;;;4.28;77.35;100791.61;1755976;80;21100;-53
2021/10/31 06:36:50;;;;;;;27.57;18.07;;;;;;;4.32;77.28;100790.27;1753354;80;21144;-55
2021/10/31 06:39:16;;;;;;;21.23;17.23;;;;;;;4.37;77.30;100786.22;1752937;80;21155;-56
2021/10/31 06:41:43;;;;;;;20.07;15.10;;;;;;;4.44;77.32;100786.61;1753595;80;21091;-52
2021/10/31 06:44:09;;;;;;;20.83;15.73;;;;;;;4.51;77.37;100787.00;1752789;80;21385;-54
2021/10/31 06:46:36;;;;;;;21.07;14.53;;;;;;;4.60;77.46;100784.72;1757184;80;21052;-54
2021/10/31 06:49:04;;;;;;;17.97;13.80;;;;;;;4.70;77.61;100787.75;1756543;80;21753;-53
2021/10/31 06:51:31;;;;;;;19.30;14.10;;;;;;;4.79;77.68;100792.56;1761383;80;20906;-54
2021/10/31 06:53:58;;;;;;;23.07;16.67;;;;;;;4.91;77.80;100788.48;1760700;80;20974;-54
2021/10/31 06:56:26;;;;;;;24.53;19.13;;;;;;;5.04;77.82;100791.91;1760762;80;20929;-53
2021/10/31 06:58:52;;;;;;;26.33;19.50;;;;;;;5.15;77.90;100790.02;1758733;80;20973;-55
2021/10/31 07:01:20;;;;;;;30.10;20.53;;;;;;;5.27;78.05;100785.87;1757190;80;21094;-54
2021/10/31 07:03:48;;;;;;;26.67;19.83;;;;;;;5.41;78.07;100778.19;1760704;80;21519;-54
2021/10/31 07:06:16;;;;;;;25.03;17.83;;;;;;;5.55;78.02;100777.58;1762413;80;22653;-56
2021/10/31 07:08:43;;;;;;;26.33;16.50;;;;;;;5.66;78.07;100773.00;1756726;80;20878;-56
2021/10/31 07:11:10;;;;;;;18.27;15.03;;;;;;;5.78;78.25;100772.86;1763470;80;20926;-56
2021/10/31 07:13:36;;;;;;;20.13;14.37;;;;;;;5.91;78.44;100766.48;1756571;80;21110;-54
2021/10/31 07:16:03;;;;;;;20.47;13.57;;;;;;;6.04;78.49;100760.05;1756315;80;20981;-56
2021/10/31 07:18:30;;;;;;;16.53;12.77;;;;;;;6.19;78.51;100757.62;1769267;80;20922;-55
2021/10/31 07:20:56;;;;;;;17.13;13.37;;;;;;;6.36;78.40;100760.94;1767014;80;21348;-54
2021/10/31 07:23:23;;;;;;;14.87;12.33;;;;;;;6.51;78.41;100755.80;1766152;78;21450;-54
2021/10/31 07:25:50;;;;;;;16.50;13.77;;;;;;;6.66;78.26;100754.20;1764932;80;22626;-53
2021/10/31 07:28:16;;;;;;;20.97;13.70;;;;;;;6.79;78.11;100760.25;1766786;80;21468;-53
2021/10/31 07:30:43;;;;;;;16.57;13.57;;;;;;;6.92;77.97;100754.22;1764801;80;21012;-55
2021/10/31 07:33:09;;;;;;;18.27;14.77;;;;;;;7.04;77.79;100760.25;1739243;81;21056;-54
2021/10/31 07:35:37;;;;;;;23.05;17.75;;;;;;;7.14;77.49;100755.63;1739855;81;21062;-55
2021/10/31 07:38:04;;;;;;;19.87;14.20;;;;;;;7.23;77.27;100752.74;1739385;81;21101;-56
2021/10/31 07:40:31;;;;;;;19.35;10.93;;;;;;;7.34;77.24;100755.22;1741534;81;21498;-55
2021/10/31 07:42:57;;;;;;;13.45;10.10;;;;;;;7.45;77.08;100752.78;1743616;81;21593;-58
2021/10/31 07:45:23;;;;;;;14.15;10.03;;;;;;;7.58;76.81;100751.60;1760257;80;21036;-55
2021/10/31 07:47:50;;;;;;;14.47;11.10;;;;;;;7.71;76.54;100758.06;1744203;81;21095;-55
2021/10/31 07:50:16;;;;;;;16.57;10.32;;;;;;;7.84;76.20;100763.58;1747512;81;21736;-57
2021/10/31 07:52:43;;;;;;;11.03;9.63;;;;;;;7.96;75.87;100759.31;1745421;79;21094;-56
2021/10/31 07:55:13;;;;;;;14.40;9.48;;;;;;;8.10;75.47;100749.61;1750642;81;21707;-55
2021/10/31 07:57:39;;;;;;;12.15;7.80;;;;;;;8.22;75.14;100753.38;1743386;81;21092;-56
2021/10/31 08:00:05;;;;;;;12.75;7.67;;;;;;;8.34;74.51;100756.67;1744867;81;21106;-57
2021/10/31 08:02:34;;;;;;;12.10;7.10;;;;;;;8.46;73.97;100751.49;1742799;81;21527;-56
2021/10/31 08:05:00;;;;;;;8.28;7.42;;;;;;;8.58;73.40;100753.90;1742149;81;21349;-57
2021/10/31 08:07:29;;;;;;;10.00;7.40;;;;;;;8.69;72.92;100755.83;1745324;79;21539;-57
2021/10/31 08:09:55;;;;;;;8.50;7.70;;;;;;;8.81;72.56;100749.29;1745987;81;21370;-56
2021/10/31 08:12:21;;;;;;;7.28;6.15;;;;;;;8.92;72.27;100747.69;1749386;81;21051;-58
2021/10/31 08:14:48;;;;;;;10.58;6.83;;;;;;;9.03;71.89;100745.13;1747247;81;21473;-57
2021/10/31 08:17:14;;;;;;;8.93;7.45;;;;;;;9.15;71.21;100744.38;1739627;79;21069;-57
2021/10/31 08:19:40;;;;;;;8.78;7.87;;;;;;;9.25;70.74;100751.28;1741109;79;21067;-57
2021/10/31 08:22:06;;;;;;;11.35;7.08;;;;;;;9.33;70.26;100749.27;1752400;80;21123;-56
2021/10/31 08:24:33;;;;;;;10.25;7.65;;;;;;;9.42;69.55;100741.84;1720935;82;21064;-56
2021/10/31 08:27:00;;;;;;;7.90;7.08;;;;;;;9.50;68.93;100740.27;1744405;80;21224;-57
2021/10/31 08:29:26;;;;;;;10.48;8.40;;;;;;;9.57;68.58;100740.52;1735166;81;21105;-57
2021/10/31 08:31:55;;;;;;;9.63;6.85;;;;;;;9.66;68.05;100747.44;1734600;81;21072;-57
2021/10/31 08:34:21;;;;;;;10.93;6.85;;;;;;;9.71;67.53;100740.98;1734948;80;21132;-55
2021/10/31 08:36:48;;;;;;;8.73;6.50;;;;;;;9.77;67.36;100741.30;1730802;80;21076;-56
2021/10/31 08:39:14;;;;;;;10.82;7.90;;;;;;;9.84;67.12;100745.10;1734992;81;23331;-57
2021/10/31 08:41:41;;;;;;;9.13;6.20;;;;;;;9.93;67.13;100741.72;1732073;81;21649;-58
2021/10/31 08:44:07;;;;;;;8.23;6.37;;;;;;;10.00;66.83;100740.14;1733455;81;21069;-57
2021/10/31 08:46:34;;;;;;;8.13;6.22;;;;;;;10.07;66.69;100737.67;1731793;81;21124;-54
2021/10/31 08:49:02;;;;;;;8.63;6.62;;;;;;;10.13;66.46;100737.48;1735459;81;21057;-55
2021/10/31 08:51:29;;;;;;;10.35;6.22;;;;;;;10.23;65.79;100736.77;1735654;81;21148;-56
2021/10/31 08:53:56;;;;;;;9.78;6.15;;;;;;;10.30;65.27;100731.60;1735736;81;21103;-57
2021/10/31 08:56:30;;;;;;;6.92;4.87;;;;;;;10.38;65.00;100727.35;1733058;81;21081;-55
2021/10/31 08:58:57;;;;;;;5.12;4.58;;;;;;;10.43;64.62;100735.69;1734720;81;21092;-57
2021/10/31 09:01:24;;;;;;;9.63;4.75;;;;;;;10.51;64.06;100726.02;1733196;81;21112;-57
2021/10/31 09:03:52;;;;;;;7.17;4.72;;;;;;;10.55;63.41;100719.58;1732658;81;21515;-56
2021/10/31 09:06:20;;;;;;;11.00;5.50;;;;;;;10.58;63.29;100723.06;1734305;81;21045;-57
2021/10/31 09:08:47;;;;;;;6.70;4.72;;;;;;;10.63;63.00;100726.97;1738745;79;21783;-56
2021/10/31 09:11:13;;;;;;;7.28;5.42;;;;;;;10.68;62.95;100722.30;1734288;81;21012;-57
2021/10/31 09:13:40;;;;;;;10.43;5.65;;;;;;;10.72;62.81;100715.86;1733977;81;21056;-57
2021/10/31 09:16:06;;;;;;;12.20;5.35;;;;;;;10.76;62.62;100712.16;1734045;81;21135;-57
2021/10/31 09:18:33;;;;;;;4.53;4.03;;;;;;;10.81;62.63;100710.17;1735318;80;21068;-57
2021/10/31 09:21:00;;;;;;;6.75;4.42;;;;;;;10.86;62.44;100706.88;1734961;81;21083;-57
2021/10/31 09:23:26;;;;;;;9.38;5.47;;;;;;;10.91;62.17;100700.84;1734229;80;20940;-58
2021/10/31 09:25:54;;;;;;;8.88;4.80;;;;;;;10.96;61.96;100706.09;1737979;81;20921;-57
2021/10/31 09:28:21;;;;;;;16.27;4.95;;;;;;;11.00;61.75;100700.53;1744758;79;21108;-56
2021/10/31 09:30:47;;;;;;;12.30;5.00;;;;;;;11.07;61.58;100702.53;1733754;80;21040;-57
2021/10/31 09:33:14;;;;;;;8.40;2.95;;;;;;;11.13;61.35;100697.41;1733926;81;21084;-58
2021/10/31 09:35:55;;;;;;;6.05;3.72;;;;;;;11.20;61.36;100700.30;1732271;81;21092;-58
2021/10/31 09:38:11;;;;;;;7.80;5.35;;;;;;;11.25;60.91;100696.49;1729728;81;21052;-59
2021/10/31 09:40:39;;;;;;;8.00;4.65;;;;;;;11.30;60.48;100701.27;1734140;81;21125;-58
2021/10/31 09:43:05;;;;;;;7.83;5.30;;;;;;;11.35;60.55;100697.92;1734577;81;21085;-57
2021/10/31 09:45:34;;;;;;;12.23;3.83;;;;;;;11.38;60.64;100695.13;1735435;80;21032;-60
2021/10/31 09:48:08;;;;;;;9.63;4.42;;;;;;;11.43;60.17;100690.91;1735136;81;20969;-59
2021/10/31 09:50:39;;;;;;;5.77;3.40;;;;;;;11.49;59.70;100692.48;1740178;80;20905;-59
2021/10/31 09:53:06;;;;;;;8.33;3.55;;;;;;;11.52;59.40;100689.69;1743096;80;21764;-59
2021/10/31 09:55:33;;;;;;;5.50;2.92;;;;;;;11.55;59.42;100686.88;1734406;81;20962;-58
2021/10/31 09:58:01;;;;;;;8.43;4.78;;;;;;;11.59;58.84;100676.38;1733030;81;21001;-57
2021/10/31 10:00:44;;;;;;;9.43;4.50;;;;;;;11.59;58.74;100684.47;1740071;81;21608;-58
2021/10/31 10:06:22;;;;;;;6.37;4.58;;;;;;;11.63;58.42;100672.64;1738698;81;21124;-56
2021/10/31 10:09:08;;;;;;;9.18;4.17;;;;;;;11.65;58.34;100681.06;1734209;81;21041;-58
2021/10/31 10:11:38;;;;;;;7.05;3.45;;;;;;;11.67;58.42;100672.92;1738479;81;21584;-58
2021/10/31 10:14:23;;;;;;;8.83;4.50;;;;;;;11.71;58.06;100670.53;1736449;81;21604;-57
2021/10/31 10:16:48;;;;;;;6.22;4.33;;;;;;;11.74;58.00;100666.34;1738807;81;20961;-60
2021/10/31 10:19:30;;;;;;;10.78;4.20;;;;;;;11.79;57.90;100656.78;1736375;80;21093;-59
2021/10/31 10:22:06;;;;;;;9.28;3.65;;;;;;;11.82;57.83;100659.38;1740600;81;21314;-57
2021/10/31 10:24:39;;;;;;;6.03;3.77;;;;;;;11.86;57.71;100652.43;1732567;81;21112;-57
2021/10/31 10:27:06;;;;;;;6.75;3.52;;;;;;;11.91;57.34;100655.81;1735765;81;21147;-59
2021/10/31 10:29:40;;;;;;;9.33;3.92;;;;;;;11.92;56.99;100642.73;1734276;81;21081;-57
2021/10/31 10:32:16;;;;;;;5.03;3.65;;;;;;;11.93;56.82;100638.22;1734021;80;22542;-58
2021/10/31 10:34:50;;;;;;;5.40;3.30;;;;;;;11.94;56.93;100634.59;1739154;81;20957;-59
2021/10/31 10:37:26;;;;;;;7.35;3.65;;;;;;;11.97;56.91;100629.08;1734172;81;21073;-58
2021/10/31 10:39:55;;;;;;;11.00;4.30;;;;;;;11.98;56.77;100627.68;1736951;81;21075;-56
2021/10/31 10:42:25;;;;;;;9.00;2.62;;;;;;;12.01;56.81;100622.14;1732438;81;21581;-59
2021/10/31 10:45:02;;;;;;;7.70;4.20;;;;;;;12.03;56.70;100615.33;1739183;81;21522;-59
2021/10/31 10:47:28;;;;;;;5.72;2.67;;;;;;;12.05;56.53;100612.11;1733801;81;21009;-60
2021/10/31 10:49:56;;;;;;;4.08;3.45;;;;;;;12.07;56.54;100608.89;1736180;81;21069;-57
2021/10/31 10:52:40;;;;;;;11.18;3.40;;;;;;;12.09;56.40;100610.56;1733005;81;21362;-60
2021/10/31 10:55:18;;;;;;;9.73;4.78;;;;;;;12.11;56.18;100601.94;1735172;81;21060;-60
2021/10/31 10:57:59;;;;;;;9.70;3.67;;;;;;;12.13;56.26;100605.93;1732759;81;21226;-59
2021/10/31 11:00:37;;;;;;;6.50;3.83;;;;;;;12.15;56.02;100605.88;1733170;81;21111;-60
2021/10/31 11:03:09;;;;;;;4.12;3.77;;;;;;;12.15;56.04;100597.78;1734609;81;21017;-60
2021/10/31 11:05:46;;;;;;;7.00;3.22;;;;;;;12.15;55.93;100597.78;1733879;81;21064;-58
2021/10/31 11:08:18;;;;;;;9.85;2.77;;;;;;;12.17;55.94;100594.52;1735169;81;21064;-58
2021/10/31 11:10:55;;;;;;;2.10;1.82;;;;;;;12.20;56.11;100594.41;1731429;81;21116;-60
2021/10/31 11:13:23;;;;;;;4.95;2.95;;;;;;;12.23;55.85;100586.19;1734708;81;21677;-59
2021/10/31 11:15:51;;;;;;;5.45;2.75;;;;;;;12.25;55.59;100591.91;1714850;81;21108;-60
2021/10/31 11:18:17;;;;;;;4.33;3.17;;;;;;;12.25;55.59;100591.91;1734374;81;21037;-58
2021/10/31 11:20:44;;;;;;;5.10;2.92;;;;;;;12.26;55.20;100590.97;1735723;81;21131;-59
2021/10/31 11:23:15;;;;;;;10.65;3.70;;;;;;;12.25;55.01;100589.20;1739007;81;21206;-59
2021/10/31 11:25:44;;;;;;;7.00;2.90;;;;;;;12.27;55.17;100586.45;1736412;81;21061;-59
2021/10/31 11:28:13;;;;;;;5.90;2.37;;;;;;;12.25;55.01;100585.16;1741438;81;21455;-58
2021/10/31 11:30:42;;;;;;;3.98;2.72;;;;;;;12.26;55.05;100582.87;1739225;81;21144;-60
2021/10/31 11:34:05;;;;;;;4.10;3.57;;;;;;;12.32;55.07;100579.05;1792043;78;22697;-58
2021/10/31 11:36:32;;;;;;;3.37;2.20;;;;;;;12.28;54.92;100574.71;1762441;80;21087;-58